Nancy-Ochey (BA 133) Air Base

Airport
ICAO code: 
LFSO
Summary
ICAO Region: 
EUR
Territory: 
Location: 
, Lorraine
Serving: 
Nancy
Elevation: 
1106 ft
Coordinates: 
Aerial View: 
48° 34' 59.002" N, 5° 57' 18" E
Metar
Observation
LFSO 240730Z AUTO 04003KT 6000 NSC M03/M03 Q1030 TEMPO 2900 BR
Station
Nancy / Ochey
Date/Time
2022-01-24 07:30:00
Wind direction
40°
Wind speed
03 kts
Lowest cloud amount
nil significant cloud
Temperature
-3°C
Dew point
-3°C
Humidity
100%
QNH
1030 hPa
Weather condition
n/a

Runways

Designator Length Width Surface Rops
2/20 2401 45 CON No/No
Airport map: 
Aerial View: 

SKYbrary Partners:

Safety knowledge contributed by: